Time;durP1;ratioP1;P1;durP2;ratioP2;P2;SDS_P1;SDS_P2;PMS_P1;PMS_P2;Temp;Humidity;BMP_temperature;BMP_pressure;BME280_temperature;BME280_humidity;BME280_pressure;Samples;Min_cycle;Max_cycle;Signal;HPM_P1;HPM_P2
2022/09/15 00:00:35;;;;;;;3.80;2.20;;;;;;;21.33;54.70;99750.10;116801;1186;24161;-70
2022/09/15 00:03:02;;;;;;;3.00;2.20;;;;;;;21.31;54.77;99748.12;116794;1189;24179;-60
2022/09/15 00:05:32;;;;;;;;;;;;;;;21.29;54.65;99744.52;116829;1189;21839;-71
2022/09/15 00:07:59;;;;;;;4.00;2.40;;;;;;;21.27;54.46;99739.27;116895;1186;24224;-70
2022/09/15 00:10:27;;;;;;;3.70;2.50;;;;;;;21.26;54.67;99737.55;116846;1189;22739;-71
2022/09/15 00:12:55;;;;;;;5.40;2.10;;;;;;;21.26;54.95;99732.56;116860;1189;22082;-60
2022/09/15 00:15:21;;;;;;;3.40;2.30;;;;;;;21.27;54.70;99730.55;116797;1189;21921;-71
2022/09/15 00:17:49;;;;;;;3.70;2.40;;;;;;;21.28;54.72;99729.59;116831;1189;23585;-71
2022/09/15 00:20:17;;;;;;;3.50;2.20;;;;;;;21.28;54.37;99727.09;116950;1189;22912;-71
2022/09/15 00:22:48;;;;;;;3.40;2.20;;;;;;;21.28;54.71;99725.46;116839;1185;23661;-71
2022/09/15 00:25:15;;;;;;;5.50;2.30;;;;;;;21.27;54.58;99725.34;116865;1183;22902;-71
2022/09/15 00:27:41;;;;;;;4.30;2.30;;;;;;;21.25;54.62;99722.42;116860;1186;22998;-60
2022/09/15 00:30:09;;;;;;;4.60;2.40;;;;;;;21.23;54.53;99716.29;116817;1188;22542;-70
2022/09/15 00:32:37;;;;;;;4.90;2.20;;;;;;;21.22;54.88;99708.92;116846;1186;23850;-60
2022/09/15 00:35:05;;;;;;;4.10;2.20;;;;;;;21.21;54.43;99702.73;116881;1191;21870;-70
2022/09/15 00:37:32;;;;;;;5.80;2.70;;;;;;;21.21;54.69;99700.94;116854;1189;21902;-60
2022/09/15 00:40:00;;;;;;;4.30;2.20;;;;;;;21.21;54.71;99706.31;116932;1186;22629;-60
2022/09/15 00:42:27;;;;;;;6.60;2.60;;;;;;;21.21;54.83;99708.11;116868;1186;23461;-60
2022/09/15 00:44:56;;;;;;;6.30;2.60;;;;;;;21.21;54.64;99708.94;116801;1186;24183;-70
2022/09/15 00:47:33;;;;;;;4.80;2.50;;;;;;;21.22;54.53;99710.30;116886;1189;21862;-70
2022/09/15 00:50:06;;;;;;;6.60;2.80;;;;;;;21.23;54.92;99710.94;116912;1186;23656;-60
2022/09/15 00:52:56;;;;;;;3.90;2.30;;;;;;;21.22;55.23;99714.77;116875;1186;21852;-70
2022/09/15 00:55:33;;;;;;;6.10;2.60;;;;;;;21.21;54.67;99720.73;116882;1186;21891;-60
2022/09/15 00:58:02;;;;;;;3.50;2.50;;;;;;;21.22;54.58;99717.09;116773;1186;23484;-60
2022/09/15 01:00:29;;;;;;;5.00;2.30;;;;;;;21.22;54.57;99715.30;116856;1187;22944;-70
2022/09/15 01:02:56;;;;;;;3.70;2.40;;;;;;;21.23;54.58;99713.65;116827;1186;24236;-71
2022/09/15 01:05:26;;;;;;;5.30;2.90;;;;;;;21.23;55.13;99710.94;116999;1189;24165;-70
2022/09/15 01:08:16;;;;;;;5.00;2.60;;;;;;;21.23;55.08;99707.75;116890;1186;22937;-71
2022/09/15 01:10:45;;;;;;;3.70;2.70;;;;;;;21.22;55.05;99702.98;116872;1186;23561;-70
2022/09/15 01:13:13;;;;;;;7.60;2.40;;;;;;;21.21;55.03;99695.43;116820;1188;22628;-71
2022/09/15 01:16:01;;;;;;;4.80;2.40;;;;;;;21.18;55.95;99689.70;116942;1189;23668;-60
2022/09/15 01:18:51;;;;;;;5.50;2.70;;;;;;;21.16;55.84;99678.48;116856;1189;21872;-62
2022/09/15 01:21:33;;;;;;;7.20;2.90;;;;;;;21.13;55.71;99663.70;116808;1188;23567;-60
2022/09/15 01:24:18;;;;;;;4.00;2.70;;;;;;;21.11;55.47;99660.05;116882;1189;22903;-61
2022/09/15 01:27:01;;;;;;;5.70;2.50;;;;;;;21.09;55.44;99661.57;116862;1186;23657;-60
2022/09/15 01:30:06;;;;;;;7.20;2.80;;;;;;;21.08;55.82;99662.75;116875;1189;23586;-71
2022/09/15 01:33:04;;;;;;;4.60;2.50;;;;;;;21.07;55.46;99668.33;116831;1189;21864;-60
2022/09/15 01:35:56;;;;;;;7.90;2.50;;;;;;;21.07;55.12;99671.23;116876;1189;21906;-70
2022/09/15 01:38:59;;;;;;;3.90;2.50;;;;;;;21.08;55.37;99675.08;116991;1189;22932;-70
2022/09/15 01:41:41;;;;;;;5.10;2.60;;;;;;;21.05;55.33;99674.90;116818;1189;22657;-60
2022/09/15 01:44:39;;;;;;;5.40;2.70;;;;;;;21.03;55.20;99674.30;116886;1186;23575;-70
2022/09/15 01:47:09;;;;;;;3.60;2.20;;;;;;;21.03;55.02;99675.57;116832;1189;23707;-60
2022/09/15 01:49:43;;;;;;;5.20;2.60;;;;;;;21.01;54.98;99669.48;116926;1185;21872;-70
2022/09/15 01:52:10;;;;;;;4.90;2.80;;;;;;;20.98;55.24;99665.74;116909;1186;23007;-70
2022/09/15 01:54:41;;;;;;;4.40;2.50;;;;;;;20.94;55.09;99663.70;116789;1186;23582;-60
2022/09/15 01:57:07;;;;;;;4.10;2.40;;;;;;;20.89;54.90;99662.06;116837;1189;21936;-60
2022/09/15 01:59:34;;;;;;;5.10;3.00;;;;;;;20.86;54.93;99663.34;116862;1186;21872;-63
2022/09/15 02:02:04;;;;;;;7.90;2.70;;;;;;;20.84;54.90;99663.33;116783;1186;23513;-60
2022/09/15 02:04:45;;;;;;;5.50;2.70;;;;;;;20.80;54.92;99660.49;116906;1188;21860;-70
2022/09/15 02:07:11;;;;;;;5.10;2.90;;;;;;;20.79;55.22;99653.81;117017;1189;23561;-60
2022/09/15 02:09:50;;;;;;;4.50;2.70;;;;;;;20.75;55.14;99647.44;116878;1186;24179;-60
2022/09/15 02:12:41;;;;;;;3.30;2.50;;;;;;;20.72;55.25;99643.77;116809;1189;22646;-71
2022/09/15 02:15:10;;;;;;;4.70;2.40;;;;;;;20.68;55.26;99645.80;116972;1189;21852;-69
2022/09/15 02:17:53;;;;;;;7.10;2.60;;;;;;;20.64;55.21;99642.27;116795;1189;23600;-60
2022/09/15 02:20:49;;;;;;;4.50;2.70;;;;;;;20.64;55.09;99641.20;116895;1185;22654;-70
2022/09/15 02:23:25;;;;;;;5.50;2.60;;;;;;;20.65;55.12;99636.88;116782;1189;23586;-60
2022/09/15 02:25:56;;;;;;;4.40;2.70;;;;;;;20.65;55.05;99628.65;116880;1186;23606;-70
2022/09/15 02:28:27;;;;;;;5.10;2.70;;;;;;;20.67;55.00;99622.87;116916;1188;21905;-61
2022/09/15 02:30:54;;;;;;;4.30;2.60;;;;;;;20.67;55.02;99620.88;116780;1189;21865;-60
2022/09/15 02:33:23;;;;;;;10.30;2.80;;;;;;;20.67;55.00;99618.05;116896;1189;22843;-60
2022/09/15 02:35:50;;;;;;;3.90;2.70;;;;;;;20.65;55.06;99615.98;116796;1189;22818;-60
2022/09/15 02:38:17;;;;;;;7.50;2.90;;;;;;;20.64;55.03;99616.95;116919;1189;22656;-61
2022/09/15 02:40:44;;;;;;;4.20;2.60;;;;;;;20.63;55.08;99617.21;116810;1189;24215;-69
2022/09/15 02:43:13;;;;;;;5.40;2.70;;;;;;;20.62;55.08;99617.80;116770;1189;21874;-60
2022/09/15 02:45:40;;;;;;;6.00;2.70;;;;;;;20.62;55.08;99608.54;116885;1189;21949;-61
2022/09/15 02:48:08;;;;;;;5.70;2.50;;;;;;;20.61;55.24;99602.89;116846;1189;21857;-70
2022/09/15 02:50:36;;;;;;;7.30;2.70;;;;;;;20.59;55.10;99608.72;116818;1186;21878;-71
2022/09/15 02:53:03;;;;;;;3.40;2.40;;;;;;;20.58;55.32;99622.19;117003;1185;23579;-60
2022/09/15 02:55:30;;;;;;;4.50;2.70;;;;;;;20.57;55.35;99623.34;116903;1188;23592;-71
2022/09/15 02:57:57;;;;;;;4.10;3.00;;;;;;;20.55;55.59;99610.97;116885;1191;21870;-60
2022/09/15 03:00:25;;;;;;;7.50;2.80;;;;;;;20.53;56.06;99604.89;116984;1186;24184;-60
2022/09/15 03:02:55;;;;;;;3.90;2.70;;;;;;;20.50;56.06;99604.70;116958;1188;23580;-61
2022/09/15 03:05:24;;;;;;;7.40;2.80;;;;;;;20.48;55.55;99602.30;117084;1186;22928;-69
2022/09/15 03:07:51;;;;;;;3.30;2.60;;;;;;;20.49;55.71;99598.70;116940;1189;21851;-70
2022/09/15 03:10:22;;;;;;;4.40;2.80;;;;;;;20.49;55.47;99589.58;116965;1187;22905;-60
2022/09/15 03:12:54;;;;;;;3.60;2.50;;;;;;;20.52;55.38;99592.86;117019;1189;22324;-60
2022/09/15 03:15:22;;;;;;;7.80;2.80;;;;;;;20.53;55.26;99600.45;116911;1186;23632;-60
2022/09/15 03:17:49;;;;;;;5.80;2.80;;;;;;;20.52;55.29;99602.59;116905;1188;23561;-60
2022/09/15 03:20:26;;;;;;;;;;;;;;;20.53;55.43;99599.16;116851;1188;23635;-60
2022/09/15 03:22:54;;;;;;;6.20;2.60;;;;;;;20.51;55.43;99593.76;116871;1186;23663;-60
2022/09/15 03:25:21;;;;;;;5.50;2.50;;;;;;;20.51;55.27;99604.84;116905;1189;21881;-70
2022/09/15 03:27:48;;;;;;;8.40;3.00;;;;;;;20.50;55.20;99608.23;116826;1189;21864;-60
2022/09/15 03:30:15;;;;;;;4.40;2.70;;;;;;;20.51;55.19;99600.54;116794;1189;23589;-60
2022/09/15 03:32:42;;;;;;;6.00;2.60;;;;;;;20.50;55.65;99595.96;116863;1189;22912;-60
2022/09/15 03:35:12;;;;;;;5.50;2.70;;;;;;;20.49;55.31;99596.20;116876;1189;23462;-60
2022/09/15 03:37:42;;;;;;;4.10;2.70;;;;;;;20.49;55.20;99599.22;116803;1189;23002;-60
2022/09/15 03:40:09;;;;;;;5.60;2.80;;;;;;;20.50;55.11;99603.46;116867;1186;22999;-60
2022/09/15 03:42:36;;;;;;;5.90;2.60;;;;;;;20.51;55.03;99603.02;116911;1188;21867;-70
2022/09/15 03:45:03;;;;;;;7.90;2.50;;;;;;;20.52;55.03;99605.27;116782;1189;22937;-60
2022/09/15 03:47:31;;;;;;;6.70;3.10;;;;;;;20.54;55.04;99604.64;116906;1186;22005;-70
2022/09/15 03:49:58;;;;;;;7.70;2.80;;;;;;;20.53;55.39;99596.11;116812;1189;23873;-60
2022/09/15 03:52:26;;;;;;;7.10;2.80;;;;;;;20.53;55.35;99593.30;116851;1189;22635;-61
2022/09/15 03:54:52;;;;;;;5.50;2.60;;;;;;;20.51;55.54;99596.81;116814;1188;22960;-70
2022/09/15 03:57:19;;;;;;;4.40;2.70;;;;;;;20.48;55.63;99588.58;116822;1189;22916;-70
2022/09/15 03:59:46;;;;;;;7.20;3.20;;;;;;;20.47;55.89;99575.84;116827;1188;21872;-69
2022/09/15 04:02:13;;;;;;;6.80;2.90;;;;;;;20.47;56.18;99576.23;116934;1186;23584;-60
2022/09/15 04:04:40;;;;;;;3.60;2.80;;;;;;;20.46;56.21;99578.58;116877;1189;22937;-60
2022/09/15 04:07:07;;;;;;;5.60;2.70;;;;;;;20.46;55.92;99580.52;116817;1186;22660;-60
2022/09/15 04:09:36;;;;;;;7.90;2.60;;;;;;;20.47;56.18;99581.34;116776;1186;22627;-69
2022/09/15 04:12:03;;;;;;;5.60;2.70;;;;;;;20.48;56.11;99577.36;116770;1190;21863;-69
2022/09/15 04:14:30;;;;;;;4.50;2.60;;;;;;;20.50;55.92;99573.15;116885;1189;22049;-60
2022/09/15 04:16:57;;;;;;;6.30;2.60;;;;;;;20.52;56.22;99568.39;116896;1187;21878;-69
2022/09/15 04:19:24;;;;;;;7.80;3.30;;;;;;;20.52;56.36;99562.15;116810;1186;23458;-69
2022/09/15 04:21:51;;;;;;;4.90;2.60;;;;;;;20.53;56.18;99563.02;116809;1188;23050;-70
2022/09/15 04:24:18;;;;;;;6.20;2.80;;;;;;;20.55;56.13;99564.63;117152;1188;23563;-68
2022/09/15 04:26:45;;;;;;;3.80;2.30;;;;;;;20.58;56.35;99560.66;116685;1186;22954;-61
2022/09/15 04:29:13;;;;;;;6.90;2.90;;;;;;;20.60;57.12;99560.36;116782;1184;23708;-70
2022/09/15 04:31:41;;;;;;;6.80;3.30;;;;;;;20.63;56.91;99555.74;118869;1187;21820;-61
2022/09/15 04:34:08;;;;;;;5.10;3.00;;;;;;;20.64;56.91;99550.27;118000;1188;22673;-60
2022/09/15 04:36:35;;;;;;;5.10;2.70;;;;;;;20.67;56.89;99553.86;116776;1186;23468;-69
2022/09/15 04:39:02;;;;;;;5.90;3.10;;;;;;;20.70;56.52;99551.16;116883;1186;23596;-70
2022/09/15 04:41:29;;;;;;;4.10;2.50;;;;;;;20.73;56.58;99550.99;116898;1188;21868;-70
2022/09/15 04:43:57;;;;;;;8.50;2.30;;;;;;;20.75;56.70;99554.23;116929;1188;23554;-61
2022/09/15 04:46:24;;;;;;;4.90;2.80;;;;;;;20.77;56.27;99557.12;116895;1186;23484;-70
2022/09/15 04:48:51;;;;;;;9.40;3.30;;;;;;;20.79;56.52;99563.60;116889;1188;23141;-70
2022/09/15 04:51:20;;;;;;;4.20;2.60;;;;;;;20.81;56.29;99563.61;116895;1186;21870;-60
2022/09/15 04:53:47;;;;;;;5.50;2.80;;;;;;;20.86;56.39;99562.23;116891;1185;23558;-70
2022/09/15 04:56:16;;;;;;;4.20;2.60;;;;;;;20.91;56.52;99567.63;116920;1186;21876;-71
2022/09/15 04:58:44;;;;;;;5.20;2.90;;;;;;;20.97;56.29;99566.66;116880;1189;22763;-60
2022/09/15 05:01:22;;;;;;;4.30;2.90;;;;;;;21.03;56.47;99568.21;116896;1186;21849;-60
2022/09/15 05:03:50;;;;;;;8.50;2.70;;;;;;;21.10;56.40;99566.31;116867;1189;23584;-70
2022/09/15 05:06:19;;;;;;;5.70;2.80;;;;;;;21.15;56.49;99561.48;116854;1189;21858;-70
2022/09/15 05:08:47;;;;;;;11.20;3.20;;;;;;;21.18;56.67;99553.27;117038;1188;21860;-72
2022/09/15 05:11:14;;;;;;;4.50;2.50;;;;;;;21.21;56.25;99548.80;116909;1189;21856;-60
2022/09/15 05:13:41;;;;;;;5.80;2.40;;;;;;;21.22;56.38;99550.85;116879;1189;24283;-69
2022/09/15 05:16:16;;;;;;;7.10;2.90;;;;;;;21.21;56.61;99546.80;116935;1188;23569;-60
2022/09/15 05:18:44;;;;;;;4.60;2.30;;;;;;;21.22;56.38;99537.13;116927;1188;21864;-60
2022/09/15 05:21:12;;;;;;;6.00;2.30;;;;;;;21.24;56.22;99535.50;117016;1186;23557;-71
2022/09/15 05:23:42;;;;;;;4.00;2.30;;;;;;;21.29;56.47;99537.17;117142;1187;22655;-70
2022/09/15 05:26:12;;;;;;;4.40;2.70;;;;;;;21.39;56.21;99534.67;116746;1186;21979;-71
2022/09/15 05:28:39;;;;;;;4.30;2.40;;;;;;;21.51;56.37;99533.99;116987;1186;22835;-60
2022/09/15 05:31:16;;;;;;;3.70;2.20;;;;;;;21.66;56.26;99534.23;116889;1187;23702;-71
2022/09/15 05:33:45;;;;;;;4.30;2.30;;;;;;;21.84;56.05;99524.39;117308;1185;24216;-71
2022/09/15 05:36:13;;;;;;;5.20;2.80;;;;;;;21.99;55.66;99519.15;116765;1188;21860;-70
2022/09/15 05:38:41;;;;;;;4.30;2.40;;;;;;;22.15;55.43;99519.25;116745;1187;23585;-71
2022/09/15 05:41:16;;;;;;;4.50;2.10;;;;;;;22.33;54.91;99519.85;118994;1188;22388;-72
2022/09/15 05:43:44;;;;;;;5.10;1.80;;;;;;;22.52;54.42;99519.14;118908;1186;22650;-71
2022/09/15 05:46:11;;;;;;;6.40;1.90;;;;;;;22.70;53.95;99512.83;116956;1186;22674;-70
2022/09/15 05:48:38;;;;;;;3.40;2.00;;;;;;;22.86;53.55;99500.91;116881;1189;22093;-69
2022/09/15 05:51:05;;;;;;;3.60;1.80;;;;;;;23.02;53.31;99500.20;116844;1185;23499;-71
2022/09/15 05:53:33;;;;;;;3.00;1.80;;;;;;;23.11;52.62;99502.16;116825;1185;21869;-70
2022/09/15 05:56:03;;;;;;;4.70;1.80;;;;;;;23.16;52.18;99506.42;116777;1183;22930;-60
2022/09/15 05:58:30;;;;;;;6.00;1.90;;;;;;;23.26;52.07;99505.27;116686;1188;21973;-60
2022/09/15 06:01:03;;;;;;;5.50;2.40;;;;;;;23.36;52.02;99505.98;116778;1186;22931;-60
2022/09/15 06:03:30;;;;;;;5.50;2.40;;;;;;;23.45;52.07;99508.80;116662;1186;22772;-60
2022/09/15 06:05:59;;;;;;;3.50;1.80;;;;;;;23.55;51.84;99513.04;116738;1190;24323;-60
2022/09/15 06:08:30;;;;;;;5.30;1.60;;;;;;;23.61;51.05;99514.69;116773;1185;21902;-60
2022/09/15 06:11:06;;;;;;;5.00;1.90;;;;;;;23.67;50.75;99509.97;116773;1189;22922;-60
2022/09/15 06:13:33;;;;;;;6.40;2.00;;;;;;;23.66;49.33;99506.64;116865;1186;21928;-60
2022/09/15 06:16:08;;;;;;;3.20;1.70;;;;;;;23.62;49.01;99499.58;116815;1186;23024;-60
2022/09/15 06:18:36;;;;;;;3.20;1.90;;;;;;;23.63;49.66;99488.73;116909;1188;21906;-73
2022/09/15 06:21:05;;;;;;;3.60;1.90;;;;;;;23.65;49.81;99485.77;116870;1188;21848;-59
2022/09/15 06:23:32;;;;;;;4.30;1.80;;;;;;;23.62;49.46;99487.02;117031;1186;21869;-60
2022/09/15 06:26:19;;;;;;;4.70;1.80;;;;;;;23.60;49.72;99483.64;116829;1188;22633;-71
2022/09/15 06:28:49;;;;;;;7.30;1.90;;;;;;;23.60;49.67;99484.69;116790;1189;21875;-59
2022/09/15 06:31:15;;;;;;;4.20;1.90;;;;;;;23.64;49.20;99491.02;116858;1188;22640;-59
2022/09/15 06:33:45;;;;;;;5.60;1.70;;;;;;;23.68;49.04;99490.13;116792;1188;21910;-73
2022/09/15 06:36:12;;;;;;;5.30;2.10;;;;;;;23.70;49.04;99489.48;118869;1185;22146;-60
2022/09/15 06:38:39;;;;;;;2.80;1.50;;;;;;;23.81;49.14;99490.90;117981;1185;23582;-73
2022/09/15 06:41:07;;;;;;;8.10;2.20;;;;;;;23.99;49.84;99494.62;118893;1188;21802;-74
2022/09/15 06:43:37;;;;;;;4.30;1.90;;;;;;;24.19;49.03;99501.77;118918;1188;21774;-71
2022/09/15 06:46:08;;;;;;;4.10;1.70;;;;;;;24.29;48.05;99497.20;118903;1186;22449;-73
2022/09/15 06:48:36;;;;;;;3.40;1.60;;;;;;;24.28;48.14;99496.07;116862;1186;21862;-72
2022/09/15 06:51:03;;;;;;;4.10;2.10;;;;;;;24.23;47.91;99488.96;116910;1188;23555;-60
2022/09/15 06:53:32;;;;;;;6.40;2.00;;;;;;;24.20;48.18;99481.10;116923;1188;23649;-72
2022/09/15 06:56:02;;;;;;;5.50;2.10;;;;;;;24.26;47.69;99485.14;116923;1185;21894;-59
2022/09/15 06:58:31;;;;;;;3.10;1.70;;;;;;;24.40;47.70;99481.16;116969;1186;24012;-71
2022/09/15 07:01:01;;;;;;;3.80;1.60;;;;;;;24.62;47.23;99480.43;116783;1187;23506;-71
2022/09/15 07:03:30;;;;;;;5.10;2.10;;;;;;;24.79;47.58;99476.98;117268;1186;21847;-73
2022/09/15 07:06:02;;;;;;;6.30;1.80;;;;;;;25.01;48.12;99473.54;116926;1186;24261;-72
2022/09/15 07:08:30;;;;;;;7.20;1.70;;;;;;;25.17;47.12;99466.73;116939;1186;23648;-72
2022/09/15 07:11:00;;;;;;;4.50;1.80;;;;;;;25.29;46.10;99468.73;116930;1186;23560;-72
2022/09/15 07:13:27;;;;;;;22.60;3.50;;;;;;;25.42;46.92;99468.39;116806;1188;22654;-72
2022/09/15 07:15:58;;;;;;;3.70;1.70;;;;;;;25.55;46.60;99465.75;116787;1188;21861;-73
2022/09/15 07:18:26;;;;;;;4.10;1.70;;;;;;;25.74;46.41;99465.56;116911;1188;21907;-73
2022/09/15 07:21:00;;;;;;;7.20;1.90;;;;;;;25.89;45.31;99465.92;116776;1186;24173;-73
2022/09/15 07:23:29;;;;;;;3.70;1.80;;;;;;;26.07;45.92;99468.28;116831;1188;22991;-73
2022/09/15 07:26:10;;;;;;;5.00;1.50;;;;;;;26.24;45.44;99468.56;116918;1187;21855;-73
2022/09/15 07:28:37;;;;;;;2.90;1.60;;;;;;;26.42;44.18;99465.69;116903;1187;23664;-73
2022/09/15 07:31:05;;;;;;;4.90;2.20;;;;;;;26.61;43.86;99461.40;116813;1188;21858;-73
2022/09/15 07:33:36;;;;;;;3.60;1.30;;;;;;;26.80;43.55;99457.63;116822;1186;23610;-72
2022/09/15 07:36:04;;;;;;;4.70;1.60;;;;;;;27.02;42.76;99455.55;116883;1186;22207;-73
2022/09/15 07:38:38;;;;;;;3.30;1.60;;;;;;;27.31;42.35;99462.09;116851;1184;21863;-74
2022/09/15 07:41:13;;;;;;;2.50;1.40;;;;;;;27.54;42.48;99467.13;116814;1188;22932;-73
2022/09/15 07:43:44;;;;;;;3.20;1.70;;;;;;;27.70;42.89;99460.91;116848;1185;22650;-74
2022/09/15 07:46:12;;;;;;;2.80;1.50;;;;;;;27.83;42.39;99462.98;116903;1188;22941;-74
2022/09/15 07:48:39;;;;;;;3.50;1.50;;;;;;;27.97;41.79;99464.51;116852;1188;21988;-73
2022/09/15 07:51:05;;;;;;;4.00;1.70;;;;;;;28.00;41.67;99460.45;116845;1189;21865;-73
2022/09/15 07:53:33;;;;;;;3.90;1.90;;;;;;;28.07;41.29;99456.69;116815;1183;22931;-73
2022/09/15 07:55:59;;;;;;;3.90;1.60;;;;;;;28.14;41.51;99450.02;116861;1186;23635;-73
2022/09/15 07:58:26;;;;;;;2.90;1.50;;;;;;;28.08;40.69;99442.48;116937;1188;22919;-73
2022/09/15 08:00:53;;;;;;;2.70;1.70;;;;;;;28.02;40.70;99442.95;116883;1185;22938;-74
2022/09/15 08:03:20;;;;;;;5.30;1.80;;;;;;;28.01;41.27;99436.83;117014;1188;22100;-73
2022/09/15 08:05:47;;;;;;;2.90;1.50;;;;;;;28.03;42.21;99428.75;117016;1188;21855;-73
2022/09/15 08:08:17;;;;;;;4.80;1.60;;;;;;;28.06;41.24;99420.73;116814;1188;21881;-60
2022/09/15 08:10:44;;;;;;;3.80;1.40;;;;;;;28.11;41.30;99419.48;116771;1184;23552;-59
2022/09/15 08:13:11;;;;;;;5.80;1.90;;;;;;;28.15;40.96;99411.38;117615;1188;23676;-60
2022/09/15 08:15:39;;;;;;;3.30;1.80;;;;;;;28.15;41.72;99404.34;117003;1184;23009;-73
2022/09/15 08:18:06;;;;;;;3.00;1.40;;;;;;;28.19;42.02;99401.01;116827;1188;21954;-72
2022/09/15 08:20:36;;;;;;;2.70;1.50;;;;;;;28.31;41.94;99403.39;116920;1183;22625;-72
2022/09/15 08:23:03;;;;;;;4.60;1.90;;;;;;;28.41;40.95;99402.10;116908;1188;21855;-61
2022/09/15 08:25:33;;;;;;;4.50;1.90;;;;;;;28.50;40.76;99402.54;116874;1187;21860;-60
2022/09/15 08:28:01;;;;;;;4.90;1.60;;;;;;;28.63;41.12;99407.75;117006;1187;22961;-71
2022/09/15 08:30:32;;;;;;;2.80;1.60;;;;;;;28.72;41.21;99409.85;116930;1188;21946;-71
2022/09/15 08:33:03;;;;;;;4.50;1.60;;;;;;;28.82;39.89;99402.20;116931;1188;23492;-60
2022/09/15 08:35:44;;;;;;;2.80;1.30;;;;;;;29.01;39.64;99401.79;116900;1188;21859;-72
2022/09/15 08:38:24;;;;;;;4.80;1.40;;;;;;;29.21;39.69;99397.54;116884;1186;22628;-60
2022/09/15 08:41:03;;;;;;;2.90;1.60;;;;;;;29.33;40.43;99401.67;116790;1187;22976;-72
2022/09/15 08:43:36;;;;;;;5.80;1.80;;;;;;;29.45;39.93;99400.23;116897;1188;22867;-71
2022/09/15 08:46:17;;;;;;;8.70;2.10;;;;;;;29.55;39.44;99396.55;116781;1188;21873;-72
2022/09/15 08:49:02;;;;;;;3.50;1.40;;;;;;;29.59;39.30;99393.23;116946;1186;23608;-73
2022/09/15 08:51:42;;;;;;;7.20;1.80;;;;;;;29.65;39.45;99383.14;116889;1185;21885;-73
2022/09/15 08:54:22;;;;;;;3.80;1.40;;;;;;;29.76;39.31;99377.05;116964;1185;23464;-73
2022/09/15 08:56:59;;;;;;;4.90;1.80;;;;;;;29.99;39.86;99370.06;116960;1185;21849;-59
2022/09/15 08:59:33;;;;;;;6.60;1.70;;;;;;;30.21;40.20;99368.02;116770;1186;23549;-60
2022/09/15 09:02:25;;;;;;;5.20;1.90;;;;;;;30.45;39.57;99374.80;116807;1189;21861;-72
2022/09/15 09:04:56;;;;;;;5.90;1.90;;;;;;;30.73;38.98;99376.20;116845;1188;22920;-73
2022/09/15 09:07:51;;;;;;;3.40;1.50;;;;;;;30.80;38.12;99370.33;116822;1184;22625;-73
2022/09/15 09:10:29;;;;;;;4.80;1.70;;;;;;;30.76;39.01;99367.52;116930;1186;22726;-62
2022/09/15 09:12:59;;;;;;;3.00;1.50;;;;;;;30.75;38.97;99362.86;116833;1185;21860;-62
2022/09/15 09:15:47;;;;;;;4.50;1.80;;;;;;;30.65;38.57;99361.38;116812;1185;23576;-71
2022/09/15 09:18:23;;;;;;;6.30;1.70;;;;;;;30.55;38.40;99365.39;116697;1186;23461;-73
2022/09/15 09:21:03;;;;;;;7.50;2.10;;;;;;;30.53;37.78;99365.38;116892;1189;21878;-73
2022/09/15 09:23:40;;;;;;;;;;;;;;;30.49;37.95;99364.02;116743;1186;23555;-73
2022/09/15 09:26:10;;;;;;;5.80;1.80;;;;;;;30.32;38.16;99365.59;116795;1189;21908;-62
2022/09/15 09:28:46;;;;;;;10.30;2.10;;;;;;;30.13;37.92;99374.02;116798;1186;22959;-72
2022/09/15 09:31:19;;;;;;;5.90;1.90;;;;;;;29.99;38.31;99377.29;116774;1191;21896;-72
2022/09/15 09:33:53;;;;;;;4.80;2.10;;;;;;;29.86;38.10;99373.47;116832;1184;22638;-72
2022/09/15 09:36:22;;;;;;;3.50;1.70;;;;;;;29.78;37.75;99377.09;116915;1186;23574;-74
2022/09/15 09:38:51;;;;;;;10.20;2.20;;;;;;;29.72;37.90;99384.94;116916;1187;22884;-62
2022/09/15 09:41:26;;;;;;;4.50;1.90;;;;;;;29.72;37.79;99380.61;116933;1189;23553;-73
2022/09/15 09:43:56;;;;;;;5.30;2.40;;;;;;;29.72;38.37;99378.02;117038;1188;21849;-74
2022/09/15 09:46:31;;;;;;;8.30;2.20;;;;;;;29.74;38.21;99382.59;116942;1187;21865;-63
2022/09/15 09:49:22;;;;;;;5.00;1.80;;;;;;;29.83;38.38;99387.56;116969;1188;21853;-73
2022/09/15 09:51:54;;;;;;;10.00;2.10;;;;;;;29.91;38.21;99386.11;116965;1187;22860;-73
2022/09/15 09:54:26;;;;;;;7.30;1.70;;;;;;;29.96;38.38;99376.36;116929;1188;21908;-62
2022/09/15 09:57:17;;;;;;;6.10;1.80;;;;;;;30.01;38.27;99366.27;116888;1187;23755;-62
2022/09/15 09:59:55;;;;;;;18.90;2.70;;;;;;;29.96;37.58;99367.64;116849;1188;21871;-72
2022/09/15 10:02:30;;;;;;;5.70;1.90;;;;;;;29.91;38.30;99377.02;116990;1183;21858;-72
2022/09/15 10:05:05;;;;;;;5.00;1.90;;;;;;;29.85;37.77;99377.02;116937;1185;23614;-72
2022/09/15 10:07:32;;;;;;;5.80;1.60;;;;;;;29.73;37.82;99381.73;117070;1188;23454;-73
2022/09/15 10:10:00;;;;;;;3.60;1.50;;;;;;;29.58;38.14;99382.09;117103;1187;22822;-67
2022/09/15 10:12:31;;;;;;;7.20;2.10;;;;;;;29.40;38.06;99381.70;116945;1187;23525;-72
2022/09/15 10:15:00;;;;;;;5.40;2.10;;;;;;;29.22;38.54;99383.55;117165;1188;21997;-73
2022/09/15 10:17:47;;;;;;;5.90;2.20;;;;;;;29.08;38.64;99380.50;117155;1188;21902;-73
2022/09/15 10:20:37;;;;;;;2.50;1.60;;;;;;;29.02;38.61;99377.56;116911;1188;21863;-63
2022/09/15 10:23:16;;;;;;;7.80;2.00;;;;;;;28.98;39.05;99380.99;117109;1184;22648;-72
2022/09/15 10:25:45;;;;;;;7.00;2.00;;;;;;;28.93;38.96;99376.61;116908;1186;23481;-63
2022/09/15 10:28:28;;;;;;;6.10;1.80;;;;;;;28.89;39.50;99378.73;117105;1188;21960;-72
2022/09/15 10:31:12;;;;;;;5.60;1.90;;;;;;;28.86;39.45;99375.60;116892;1187;21859;-71
2022/09/15 10:33:43;;;;;;;7.50;1.90;;;;;;;28.86;39.47;99375.57;116976;1188;21989;-63
2022/09/15 10:36:35;;;;;;;4.50;1.60;;;;;;;28.90;39.47;99377.38;116878;1186;23563;-72
2022/09/15 10:39:11;;;;;;;4.20;1.60;;;;;;;28.93;39.38;99374.48;116864;1189;23415;-72
2022/09/15 10:41:56;;;;;;;5.00;1.60;;;;;;;28.97;39.69;99367.04;116872;1188;23589;-62
2022/09/15 10:44:51;;;;;;;4.00;1.80;;;;;;;29.01;39.84;99366.60;116752;1186;24492;-73
2022/09/15 10:47:46;;;;;;;4.90;1.80;;;;;;;29.05;39.56;99368.13;116871;1185;22934;-72
2022/09/15 10:50:47;;;;;;;7.80;2.00;;;;;;;29.10;39.50;99365.34;116907;1186;23719;-62
2022/09/15 10:53:27;;;;;;;4.30;1.70;;;;;;;29.07;39.15;99367.29;116963;1188;21864;-73
2022/09/15 10:56:22;;;;;;;3.80;1.70;;;;;;;28.98;39.41;99370.23;116893;1185;24173;-61
2022/09/15 10:59:25;;;;;;;5.30;2.10;;;;;;;28.89;39.44;99370.63;116826;1188;21908;-71
2022/09/15 11:02:13;;;;;;;6.30;2.00;;;;;;;28.79;39.31;99372.58;116880;1186;23710;-61
2022/09/15 11:05:20;;;;;;;5.50;2.20;;;;;;;28.72;39.59;99376.32;116874;1185;22913;-70
2022/09/15 11:08:07;;;;;;;8.60;1.90;;;;;;;28.65;39.84;99380.13;116816;1188;21898;-62
2022/09/15 11:10:55;;;;;;;5.10;2.20;;;;;;;28.61;40.26;99382.48;116848;1188;23801;-61
2022/09/15 11:13:55;;;;;;;7.60;2.00;;;;;;;28.57;40.50;99379.25;116826;1186;22637;-62
2022/09/15 11:16:42;;;;;;;10.50;2.00;;;;;;;28.57;40.32;99375.11;116855;1184;22939;-62
2022/09/15 11:19:13;;;;;;;9.40;2.10;;;;;;;28.57;40.35;99371.50;116939;1188;21870;-72
2022/09/15 11:21:51;;;;;;;6.00;1.70;;;;;;;28.55;39.71;99360.79;116776;1186;22951;-62
2022/09/15 11:24:31;;;;;;;5.10;1.80;;;;;;;28.58;39.90;99351.63;116729;1188;21933;-62
2022/09/15 11:27:11;;;;;;;5.60;1.90;;;;;;;28.61;40.21;99352.52;116632;1184;22988;-72
2022/09/15 11:30:16;;;;;;;5.50;2.00;;;;;;;28.65;39.87;99348.94;116776;1189;21863;-73
2022/09/15 11:33:05;;;;;;;15.70;2.20;;;;;;;28.71;39.59;99346.66;116948;1188;23455;-59
2022/09/15 11:35:50;;;;;;;4.20;1.80;;;;;;;28.74;39.34;99346.13;116673;1190;23566;-71
2022/09/15 11:38:46;;;;;;;3.50;1.70;;;;;;;28.82;39.90;99333.78;116823;1188;21862;-71
2022/09/15 11:41:19;;;;;;;5.10;1.70;;;;;;;28.88;39.75;99325.75;116816;1189;23720;-71
2022/09/15 11:43:55;;;;;;;6.10;1.60;;;;;;;28.94;39.57;99315.67;116906;1189;21868;-62
2022/09/15 11:46:37;;;;;;;6.70;1.80;;;;;;;29.00;39.11;99307.67;116846;1188;23496;-61
2022/09/15 11:49:07;;;;;;;3.40;1.60;;;;;;;29.07;38.87;99312.55;116940;1188;23276;-73
2022/09/15 11:51:49;;;;;;;7.10;2.10;;;;;;;29.13;39.30;99312.96;116754;1189;21874;-72
2022/09/15 11:54:47;;;;;;;3.20;1.50;;;;;;;29.19;39.16;99316.99;116723;1190;23608;-71